Time;durP1;ratioP1;P1;durP2;ratioP2;P2;SDS_P1;SDS_P2;PMS_P1;PMS_P2;Temp;Humidity;BMP_temperature;BMP_pressure;BME280_temperature;BME280_humidity;BME280_pressure;Samples;Min_cycle;Max_cycle;Signal;HPM_P1;HPM_P2
2023/03/28 00:00:58;;;;;;;5.47;2.40;;;2.30;99.90;;;;;;5081401;28;20208;-73
2023/03/28 00:03:26;;;;;;;7.00;2.33;;;2.30;99.90;;;;;;5086340;28;20225;-71
2023/03/28 00:06:01;;;;;;;7.40;2.00;;;2.30;99.90;;;;;;5070251;28;20227;-74
2023/03/28 00:08:28;;;;;;;12.07;3.13;;;2.20;99.90;;;;;;5080416;28;20666;-73
2023/03/28 00:11:04;;;;;;;16.87;2.63;;;2.20;99.90;;;;;;5084281;28;20298;-71
2023/03/28 00:13:30;;;;;;;10.73;2.43;;;2.20;99.90;;;;;;5070617;28;20258;-73
2023/03/28 00:16:02;;;;;;;6.50;2.50;;;2.10;99.90;;;;;;5082178;28;20205;-72
2023/03/28 00:18:30;;;;;;;7.57;2.37;;;2.10;99.90;;;;;;5082436;28;20681;-71
2023/03/28 00:20:57;;;;;;;8.37;2.30;;;2.10;99.90;;;;;;5080871;28;20274;-71
2023/03/28 00:23:24;;;;;;;7.03;2.43;;;2.00;99.90;;;;;;5083076;28;20209;-71
2023/03/28 00:25:51;;;;;;;12.73;2.77;;;2.00;99.90;;;;;;5081756;28;20339;-71
2023/03/28 00:28:18;;;;;;;11.17;2.93;;;2.00;99.90;;;;;;5071125;28;20543;-72
2023/03/28 00:30:44;;;;;;;13.77;3.33;;;2.00;99.90;;;;;;5084110;28;20259;-73
2023/03/28 00:33:11;;;;;;;7.03;2.70;;;1.90;99.90;;;;;;5080295;28;20213;-73
2023/03/28 00:35:38;;;;;;;10.77;3.00;;;1.90;99.90;;;;;;5085812;28;20705;-72
2023/03/28 00:38:05;;;;;;;9.33;3.13;;;1.90;99.90;;;;;;5078120;28;20291;-73
2023/03/28 00:40:36;;;;;;;11.00;4.07;;;1.90;99.90;;;;;;5067362;28;20290;-73
2023/03/28 00:43:03;;;;;;;15.03;5.50;;;1.90;99.90;;;;;;5083991;28;20793;-72
2023/03/28 00:45:30;;;;;;;12.40;3.30;;;1.80;99.90;;;;;;5061014;28;20218;-72
2023/03/28 00:48:02;;;;;;;12.50;3.00;;;1.80;99.90;;;;;;5069963;28;20300;-74
2023/03/28 00:50:39;;;;;;;8.97;3.07;;;1.80;99.90;;;;;;5079687;28;20230;-72
2023/03/28 00:53:14;;;;;;;15.10;3.20;;;1.80;99.90;;;;;;5077473;28;20299;-71
2023/03/28 00:55:54;;;;;;;12.97;2.73;;;1.80;99.90;;;;;;5086687;28;20243;-73
2023/03/28 00:58:25;;;;;;;17.40;3.53;;;1.80;99.90;;;;;;5081939;28;20291;-72
2023/03/28 01:00:55;;;;;;;9.30;2.90;;;1.80;99.90;;;;;;5089685;28;20208;-73
2023/03/28 01:03:26;;;;;;;8.63;3.27;;;1.80;99.90;;;;;;5082432;28;20274;-71
2023/03/28 01:05:55;;;;;;;8.70;3.00;;;1.70;99.90;;;;;;5083969;28;20203;-72
2023/03/28 01:08:25;;;;;;;11.07;3.17;;;1.70;99.90;;;;;;5085587;28;20208;-72
2023/03/28 01:10:52;;;;;;;12.50;3.73;;;1.80;99.90;;;;;;5087286;28;20323;-72
2023/03/28 01:13:24;;;;;;;7.00;3.20;;;1.80;99.90;;;;;;5086114;28;20650;-72
2023/03/28 01:15:51;;;;;;;10.63;4.13;;;1.80;99.90;;;;;;5084555;28;20719;-73
2023/03/28 01:18:21;;;;;;;9.43;3.73;;;1.80;99.90;;;;;;5085382;28;20254;-72
2023/03/28 01:21:24;;;;;;;9.83;3.67;;;1.70;99.90;;;;;;5088567;28;20246;-72
2023/03/28 01:24:06;;;;;;;12.97;3.43;;;1.80;99.90;;;;;;5085092;28;20583;-73
2023/03/28 01:27:01;;;;;;;14.20;3.67;;;1.70;99.90;;;;;;5089124;28;20212;-73
2023/03/28 01:30:11;;;;;;;12.00;3.77;;;1.70;99.90;;;;;;5085269;28;20295;-71
2023/03/28 01:33:08;;;;;;;10.83;3.73;;;1.70;99.90;;;;;;5080134;28;20258;-72
2023/03/28 01:35:35;;;;;;;13.50;4.20;;;1.60;99.90;;;;;;5088109;28;20217;-73
2023/03/28 01:38:42;;;;;;;10.03;4.17;;;1.60;99.90;;;;;;5082213;28;20212;-71
2023/03/28 01:41:27;;;;;;;11.27;4.60;;;1.60;99.90;;;;;;5030449;28;20296;-72
2023/03/28 01:44:02;;;;;;;9.57;3.83;;;1.60;99.90;;;;;;5077036;28;20197;-72
2023/03/28 01:46:37;;;;;;;15.73;4.33;;;1.60;99.90;;;;;;5086480;28;20200;-72
2023/03/28 01:49:25;;;;;;;14.30;3.50;;;1.50;99.90;;;;;;5081892;28;20248;-74
2023/03/28 01:52:09;;;;;;;9.10;4.43;;;1.50;99.90;;;;;;5084216;28;20311;-71
2023/03/28 01:54:48;;;;;;;14.47;4.07;;;1.50;99.90;;;;;;5090807;28;20472;-72
2023/03/28 01:57:43;;;;;;;13.90;3.80;;;1.50;99.90;;;;;;5085002;28;20208;-72
2023/03/28 02:00:28;;;;;;;9.10;4.13;;;1.50;99.90;;;;;;5084829;28;20216;-72
2023/03/28 02:03:17;;;;;;;12.10;3.97;;;1.40;99.90;;;;;;5082739;28;20311;-71
2023/03/28 02:05:46;;;;;;;8.20;3.40;;;1.40;99.90;;;;;;5084140;28;20285;-73
2023/03/28 02:08:15;;;;;;;13.90;3.57;;;1.40;99.90;;;;;;5084277;28;20298;-71
2023/03/28 02:10:44;;;;;;;9.50;3.77;;;1.30;99.90;;;;;;5090150;28;20227;-73
2023/03/28 02:13:16;;;;;;;11.87;4.43;;;1.30;99.90;;;;;;5087777;28;20771;-72
2023/03/28 02:15:47;;;;;;;8.17;4.80;;;1.20;99.90;;;;;;5087662;28;20207;-71
2023/03/28 02:18:20;;;;;;;15.10;4.83;;;1.20;99.90;;;;;;5081425;28;20217;-72
2023/03/28 02:20:53;;;;;;;13.80;4.57;;;1.20;99.90;;;;;;5082333;28;20308;-72
2023/03/28 02:23:25;;;;;;;15.50;4.70;;;1.20;99.90;;;;;;5081485;28;20306;-71
2023/03/28 02:25:52;;;;;;;12.20;4.83;;;1.30;99.90;;;;;;5086368;28;20223;-72
2023/03/28 02:28:21;;;;;;;13.70;4.90;;;1.30;99.90;;;;;;5087427;28;20213;-73
2023/03/28 02:30:48;;;;;;;15.63;4.83;;;1.30;99.90;;;;;;5086373;28;20338;-72
2023/03/28 02:33:31;;;;;;;10.40;3.90;;;1.30;99.90;;;;;;5082066;28;20318;-72
2023/03/28 02:36:07;;;;;;;10.93;5.03;;;1.30;99.90;;;;;;5081467;28;20716;-72
2023/03/28 02:38:44;;;;;;;9.90;4.57;;;1.20;99.90;;;;;;5087390;28;20199;-71
2023/03/28 02:41:30;;;;;;;8.37;4.77;;;1.20;99.90;;;;;;5081611;28;20239;-72
2023/03/28 02:44:24;;;;;;;11.37;5.07;;;1.20;99.90;;;;;;5081742;28;20578;-71
2023/03/28 02:47:14;;;;;;;15.10;5.27;;;1.10;99.90;;;;;;5083399;28;20200;-72
2023/03/28 02:49:55;;;;;;;12.17;5.00;;;1.10;99.90;;;;;;5086319;28;20645;-71
2023/03/28 02:53:00;;;;;;;16.87;5.60;;;1.10;99.90;;;;;;5080795;28;20704;-71
2023/03/28 02:55:45;;;;;;;16.20;5.60;;;1.10;99.90;;;;;;5049270;28;20205;-72
2023/03/28 02:58:22;;;;;;;12.30;5.10;;;1.00;99.90;;;;;;5082677;28;20215;-72
2023/03/28 03:00:50;;;;;;;12.73;4.97;;;1.00;99.90;;;;;;5083460;28;20209;-73
2023/03/28 03:03:17;;;;;;;22.57;5.93;;;1.00;99.90;;;;;;5064123;28;20697;-72
2023/03/28 03:05:44;;;;;;;14.70;5.57;;;1.00;99.90;;;;;;5083603;28;20691;-71
2023/03/28 03:08:10;;;;;;;10.40;5.43;;;0.90;99.90;;;;;;5080011;28;20325;-72
2023/03/28 03:10:37;;;;;;;12.67;5.20;;;0.90;99.90;;;;;;5084028;28;20216;-72
2023/03/28 03:13:04;;;;;;;13.23;4.93;;;0.90;99.90;;;;;;5084940;28;20195;-72
2023/03/28 03:15:34;;;;;;;11.43;5.00;;;0.90;99.90;;;;;;5082911;28;20564;-72
2023/03/28 03:18:01;;;;;;;6.43;4.83;;;0.90;99.90;;;;;;5080153;28;20249;-71
2023/03/28 03:20:32;;;;;;;20.80;5.60;;;0.90;99.90;;;;;;5064050;28;20203;-73
2023/03/28 03:23:00;;;;;;;14.33;4.80;;;0.90;99.90;;;;;;5082183;28;20564;-72
2023/03/28 03:25:30;;;;;;;12.60;5.03;;;0.90;99.90;;;;;;5083034;28;20522;-72
2023/03/28 03:27:56;;;;;;;13.47;5.10;;;0.90;99.90;;;;;;5089589;28;20196;-71
2023/03/28 03:30:23;;;;;;;12.23;5.30;;;0.90;99.90;;;;;;5087449;28;21013;-71
2023/03/28 03:32:50;;;;;;;11.60;5.20;;;0.90;99.90;;;;;;5061866;28;20217;-71
2023/03/28 03:35:18;;;;;;;17.10;4.80;;;0.90;99.90;;;;;;5065285;28;20222;-72
2023/03/28 03:37:45;;;;;;;14.10;4.73;;;0.90;99.90;;;;;;5093082;28;20202;-72
2023/03/28 03:40:12;;;;;;;10.70;4.60;;;0.90;99.90;;;;;;5079295;28;20684;-72
2023/03/28 03:42:40;;;;;;;14.23;4.60;;;0.90;99.90;;;;;;5084480;28;20207;-72
2023/03/28 03:45:08;;;;;;;16.10;4.50;;;1.00;99.90;;;;;;5081323;28;20707;-72
2023/03/28 03:47:35;;;;;;;13.73;4.47;;;1.00;99.90;;;;;;5084095;28;20656;-72
2023/03/28 03:50:02;;;;;;;18.87;7.43;;;1.00;99.90;;;;;;5081189;28;20588;-72
2023/03/28 03:52:29;;;;;;;16.63;5.10;;;1.00;99.90;;;;;;5078528;28;20324;-72
2023/03/28 03:54:55;;;;;;;11.53;4.90;;;1.00;99.90;;;;;;5064556;28;20289;-72
2023/03/28 03:57:22;;;;;;;12.30;4.50;;;1.00;99.90;;;;;;5083955;28;20290;-71
2023/03/28 03:59:49;;;;;;;13.87;4.27;;;1.00;99.90;;;;;;5080493;28;20770;-72
2023/03/28 04:02:15;;;;;;;12.50;4.10;;;1.00;99.90;;;;;;5081630;28;20339;-73
2023/03/28 04:04:44;;;;;;;14.03;5.10;;;1.00;99.90;;;;;;5082298;28;20257;-73
2023/03/28 04:07:11;;;;;;;16.27;5.27;;;1.00;99.90;;;;;;5081050;28;20205;-71
2023/03/28 04:09:38;;;;;;;12.47;4.43;;;1.00;99.90;;;;;;5082342;28;20985;-73
2023/03/28 04:12:06;;;;;;;11.90;5.03;;;1.00;99.90;;;;;;5090208;28;20765;-71
2023/03/28 04:14:33;;;;;;;14.17;4.83;;;1.00;99.90;;;;;;5082902;28;20189;-73
2023/03/28 04:17:00;;;;;;;15.33;4.90;;;1.00;99.90;;;;;;5081561;28;20211;-71
2023/03/28 04:19:27;;;;;;;14.83;5.03;;;1.00;99.90;;;;;;5080061;28;20289;-72
2023/03/28 04:21:55;;;;;;;13.37;4.87;;;1.00;99.90;;;;;;5065578;28;20298;-71
2023/03/28 04:24:25;;;;;;;13.13;5.17;;;1.00;99.90;;;;;;5069212;28;20197;-71
2023/03/28 04:26:55;;;;;;;14.53;4.27;;;1.00;99.90;;;;;;5077824;28;20286;-71
2023/03/28 04:29:29;;;;;;;12.33;4.50;;;1.00;99.90;;;;;;5079431;28;20215;-72
2023/03/28 04:31:59;;;;;;;18.53;5.60;;;1.00;99.90;;;;;;5082992;28;20246;-72
2023/03/28 04:34:29;;;;;;;15.20;4.47;;;0.90;99.90;;;;;;5079594;28;20659;-72
2023/03/28 04:37:00;;;;;;;11.63;5.20;;;1.00;99.90;;;;;;5067741;28;20287;-72
2023/03/28 04:39:35;;;;;;;10.97;4.30;;;1.00;99.90;;;;;;5080630;28;20212;-72
2023/03/28 04:42:04;;;;;;;14.90;4.90;;;0.90;99.90;;;;;;5082170;28;20433;-73
2023/03/28 04:44:31;;;;;;;16.77;4.83;;;0.90;99.90;;;;;;5081711;28;20207;-71
2023/03/28 04:46:58;;;;;;;12.23;4.43;;;0.90;99.90;;;;;;5083983;28;20198;-72
2023/03/28 04:49:25;;;;;;;12.87;4.63;;;0.90;99.90;;;;;;5080593;28;20658;-72
2023/03/28 04:51:52;;;;;;;18.93;5.30;;;0.90;99.90;;;;;;5077168;28;20728;-71
2023/03/28 04:54:19;;;;;;;12.47;5.70;;;0.90;99.90;;;;;;5078635;28;20739;-72
2023/03/28 04:56:49;;;;;;;18.17;4.73;;;0.90;99.90;;;;;;5072253;28;20264;-72
2023/03/28 04:59:17;;;;;;;12.87;4.67;;;0.90;99.90;;;;;;5080666;28;20217;-72
2023/03/28 05:01:48;;;;;;;17.93;5.73;;;0.90;99.90;;;;;;5082963;28;20246;-72
2023/03/28 05:04:16;;;;;;;14.13;4.97;;;0.80;99.90;;;;;;5081473;28;20233;-71
2023/03/28 05:06:44;;;;;;;11.53;4.57;;;0.80;99.90;;;;;;5086382;28;20295;-73
2023/03/28 05:09:12;;;;;;;15.73;5.03;;;0.80;99.90;;;;;;5085765;28;20696;-74
2023/03/28 05:11:39;;;;;;;11.87;5.40;;;0.80;99.90;;;;;;5086489;28;20227;-72
2023/03/28 05:14:06;;;;;;;15.33;4.90;;;0.80;99.90;;;;;;5086169;28;20693;-72
2023/03/28 05:16:34;;;;;;;13.30;5.27;;;0.80;99.90;;;;;;5082632;28;20315;-71
2023/03/28 05:19:01;;;;;;;18.07;7.90;;;0.80;99.90;;;;;;5063337;28;20230;-72
2023/03/28 05:21:28;;;;;;;16.63;5.63;;;0.70;99.90;;;;;;5078907;28;20222;-73
2023/03/28 05:23:55;;;;;;;12.10;5.40;;;0.70;99.90;;;;;;5085574;28;20206;-71
2023/03/28 05:26:22;;;;;;;13.50;5.83;;;0.70;99.90;;;;;;5085950;28;20201;-72
2023/03/28 05:28:48;;;;;;;12.20;5.63;;;0.70;99.90;;;;;;5083219;28;20210;-73
2023/03/28 05:31:16;;;;;;;14.90;5.70;;;0.70;99.90;;;;;;5084012;28;20293;-72
2023/03/28 05:33:43;;;;;;;15.17;6.07;;;0.70;99.90;;;;;;5076901;28;20212;-72
2023/03/28 05:36:10;;;;;;;16.57;5.87;;;0.70;99.90;;;;;;5087072;28;20278;-72
2023/03/28 05:38:37;;;;;;;16.07;6.13;;;0.90;99.90;;;;;;5079609;28;20609;-72
2023/03/28 05:41:04;;;;;;;14.63;6.77;;;0.70;99.90;;;;;;5078043;28;20236;-72
2023/03/28 05:43:30;;;;;;;15.43;5.73;;;0.80;99.90;;;;;;5079690;28;20288;-74
2023/03/28 05:45:57;;;;;;;14.50;7.57;;;0.80;99.90;;;;;;5090846;28;20207;-72
2023/03/28 05:48:24;;;;;;;14.07;5.83;;;0.80;99.90;;;;;;5085913;28;20228;-72
2023/03/28 05:50:51;;;;;;;17.77;6.53;;;0.80;99.90;;;;;;5077966;28;20207;-73
2023/03/28 05:53:17;;;;;;;15.67;6.87;;;0.90;99.90;;;;;;5073094;28;20224;-73
2023/03/28 05:55:44;;;;;;;16.47;7.40;;;0.90;99.90;;;;;;5083156;28;20657;-71
2023/03/28 05:58:11;;;;;;;17.33;6.57;;;1.00;99.90;;;;;;5083080;28;20245;-72
2023/03/28 06:00:38;;;;;;;16.03;6.47;;;1.10;99.90;;;;;;5084473;28;20200;-69
2023/03/28 06:03:06;;;;;;;15.73;6.40;;;1.10;99.90;;;;;;5087397;28;20251;-73
2023/03/28 06:05:33;;;;;;;14.53;6.40;;;1.10;99.90;;;;;;5087806;28;20508;-71
2023/03/28 06:08:00;;;;;;;17.27;6.87;;;1.20;99.90;;;;;;5086096;28;20197;-72
2023/03/28 06:10:27;;;;;;;14.57;6.70;;;1.30;99.90;;;;;;5083271;28;20240;-73
2023/03/28 06:12:54;;;;;;;13.23;7.03;;;1.40;99.90;;;;;;5091089;28;20219;-73
2023/03/28 06:15:21;;;;;;;14.30;6.43;;;1.50;99.90;;;;;;5084250;28;20668;-72
2023/03/28 06:17:48;;;;;;;15.13;6.50;;;1.60;99.90;;;;;;5087058;28;20321;-70
2023/03/28 06:20:15;;;;;;;18.33;6.47;;;1.70;99.90;;;;;;5083939;28;20655;-71
2023/03/28 06:22:41;;;;;;;11.27;5.80;;;1.80;99.90;;;;;;5087461;28;20205;-72
2023/03/28 06:25:08;;;;;;;16.13;6.60;;;2.00;99.90;;;;;;5082219;28;20583;-71
2023/03/28 06:27:35;;;;;;;19.90;6.90;;;2.00;99.90;;;;;;5084638;28;20292;-71
2023/03/28 06:30:03;;;;;;;12.27;6.13;;;2.10;99.90;;;;;;5083874;28;20203;-72
2023/03/28 06:32:30;;;;;;;15.40;6.87;;;2.10;99.90;;;;;;5082969;28;20244;-71
2023/03/28 06:34:57;;;;;;;14.67;7.63;;;2.10;99.90;;;;;;5086893;28;20697;-71
2023/03/28 06:37:24;;;;;;;11.67;7.67;;;2.20;99.90;;;;;;5084075;28;20274;-71
2023/03/28 06:39:52;;;;;;;14.80;7.63;;;2.30;99.90;;;;;;5064932;28;20216;-72
2023/03/28 06:42:19;;;;;;;18.43;8.07;;;2.30;99.90;;;;;;5085872;28;20291;-71
2023/03/28 06:44:45;;;;;;;13.00;6.83;;;2.40;99.90;;;;;;5090411;28;20245;-72
2023/03/28 06:47:12;;;;;;;12.87;7.10;;;2.50;99.90;;;;;;5086276;28;20301;-72
2023/03/28 06:49:39;;;;;;;15.27;7.17;;;2.60;99.90;;;;;;5087401;28;20209;-72
2023/03/28 06:52:06;;;;;;;19.00;7.90;;;2.70;99.90;;;;;;5083955;28;20218;-74
2023/03/28 06:54:33;;;;;;;11.63;6.57;;;2.80;99.90;;;;;;5091598;28;20600;-76
2023/03/28 06:57:00;;;;;;;11.80;7.73;;;2.90;99.90;;;;;;5089403;22;20231;-87
2023/03/28 06:59:29;;;;;;;18.27;8.13;;;3.00;99.90;;;;;;5035010;28;20208;-86
2023/03/28 07:02:07;;;;;;;14.47;7.13;;;3.60;99.90;;;;;;5033494;28;20713;-86
2023/03/28 07:04:35;;;;;;;12.33;6.07;;;4.30;99.90;;;;;;5033554;28;20204;-90
2023/03/28 07:07:02;;;;;;;11.20;5.20;;;6.30;99.90;;;;;;5038817;28;20277;-86
2023/03/28 07:09:34;;;;;;;9.83;4.80;;;6.30;99.90;;;;;;5050680;28;20246;-90
2023/03/28 07:12:07;;;;;;;6.93;4.33;;;7.30;99.90;;;;;;5035742;28;20251;-89
2023/03/28 07:14:43;;;;;;;13.03;3.90;;;8.10;99.90;;;;;;5045254;28;20616;-84
2023/03/28 07:17:13;;;;;;;6.30;3.40;;;8.60;99.90;;;;;;5030394;28;20272;-91
2023/03/28 07:20:21;;;;;;;10.63;3.70;;;9.60;99.90;;;;;;5038101;28;20204;-89
2023/03/28 07:22:49;;;;;;;11.10;3.87;;;9.70;99.90;;;;;;5035146;28;20271;-88
2023/03/28 07:25:18;;;;;;;10.17;3.17;;;10.20;99.90;;;;;;5038880;28;20255;-87
2023/03/28 07:28:01;;;;;;;8.57;3.60;;;10.70;99.90;;;;;;5030540;28;20198;-87
2023/03/28 07:30:30;;;;;;;8.70;3.40;;;11.20;99.90;;;;;;5033530;28;20197;-88
2023/03/28 07:33:07;;;;;;;11.73;3.00;;;11.60;99.90;;;;;;5052797;28;20315;-89
2023/03/28 07:35:47;;;;;;;10.80;3.40;;;12.30;99.90;;;;;;5035007;28;20234;-87
2023/03/28 07:38:18;;;;;;;10.73;3.03;;;12.80;99.90;;;;;;5029574;28;20256;-88
2023/03/28 07:40:47;;;;;;;6.97;2.90;;;13.10;99.90;;;;;;5020680;28;20672;-89
2023/03/28 07:43:22;;;;;;;10.30;2.97;;;13.20;99.90;;;;;;5031654;28;20238;-87
2023/03/28 07:45:49;;;;;;;7.55;2.70;;;13.00;99.90;;;;;;5037004;28;20225;-89
2023/03/28 07:48:17;;;;;;;10.30;2.90;;;12.70;99.90;;;;;;5032224;28;20637;-88
2023/03/28 07:50:48;;;;;;;8.80;3.13;;;12.20;99.90;;;;;;5035501;28;20193;-89
2023/03/28 07:53:15;;;;;;;6.10;2.30;;;11.90;99.90;;;;;;5054687;28;20221;-81
2023/03/28 07:55:44;;;;;;;5.03;2.13;;;11.60;99.90;;;;;;5050562;28;20295;-85
2023/03/28 07:58:21;;;;;;;6.67;2.57;;;11.30;99.90;;;;;;5033724;28;20229;-88
2023/03/28 08:00:49;;;;;;;6.73;2.60;;;11.00;99.90;;;;;;5036415;28;20197;-88
2023/03/28 08:03:22;;;;;;;10.17;2.73;;;10.70;99.90;;;;;;5035089;28;20221;-91
2023/03/28 08:05:52;;;;;;;8.10;2.90;;;10.60;99.90;;;;;;5030772;28;20279;-89
2023/03/28 08:08:29;;;;;;;5.97;2.50;;;10.80;99.90;;;;;;5029641;28;20209;-88
2023/03/28 08:11:24;;;;;;;9.63;2.37;;;11.00;99.90;;;;;;5043410;28;20229;-87
2023/03/28 08:14:11;;;;;;;8.73;2.83;;;10.90;99.90;;;;;;5054807;28;20240;-87
2023/03/28 08:16:47;;;;;;;7.33;2.30;;;10.90;99.90;;;;;;5033041;28;20810;-87
2023/03/28 08:19:18;;;;;;;7.07;2.50;;;11.10;99.90;;;;;;5033717;28;20241;-86
2023/03/28 08:21:51;;;;;;;6.70;2.27;;;11.50;99.90;;;;;;5035692;28;20204;-88
2023/03/28 08:24:22;;;;;;;7.60;2.40;;;12.10;99.90;;;;;;5030695;28;20557;-89
2023/03/28 08:27:03;;;;;;;5.30;1.90;;;12.70;99.90;;;;;;5023533;28;20196;-88
2023/03/28 08:29:33;;;;;;;9.57;2.20;;;13.00;99.90;;;;;;5018612;28;20305;-88
2023/03/28 08:32:00;;;;;;;9.18;2.05;;;13.30;99.90;;;;;;5032047;28;20222;-90
2023/03/28 08:34:30;;;;;;;7.55;2.28;;;13.30;99.90;;;;;;5021689;28;20208;-87
2023/03/28 08:36:59;;;;;;;7.93;1.75;;;13.10;99.90;;;;;;5048877;28;20205;-91
2023/03/28 08:39:39;;;;;;;4.63;1.77;;;12.50;99.90;;;;;;5032625;28;20288;-87
2023/03/28 08:42:35;;;;;;;6.40;1.97;;;12.10;99.90;;;;;;5030357;28;20271;-86
2023/03/28 08:45:53;;;;;;;6.53;1.93;;;11.90;99.90;;;;;;5024150;28;20193;-89
2023/03/28 08:48:46;;;;;;;5.50;1.40;;;11.50;99.90;;;;;;5045268;28;20217;-88
2023/03/28 08:51:21;;;;;;;4.70;1.90;;;11.10;99.90;;;;;;5039533;28;20200;-87
2023/03/28 08:54:13;;;;;;;4.20;1.57;;;10.70;99.90;;;;;;5057707;28;20216;-88
2023/03/28 08:57:03;;;;;;;;;;;;;;;;;;;;;
2023/03/28 09:00:19;;;;;;;6.40;1.77;;;10.40;99.90;;;;;;5031982;28;20629;-89
2023/03/28 09:02:53;;;;;;;4.90;1.47;;;10.30;99.90;;;;;;5021509;28;20225;-90
2023/03/28 09:05:32;;;;;;;7.37;1.53;;;10.10;99.90;;;;;;5033404;28;20205;-89
2023/03/28 09:08:38;;;;;;;4.47;1.70;;;10.00;99.90;;;;;;5014870;28;20226;-89
2023/03/28 09:11:41;;;;;;;5.50;1.97;;;10.00;99.90;;;;;;5017365;28;20230;-89
2023/03/28 09:14:28;;;;;;;6.43;1.80;;;9.60;99.90;;;;;;5031123;28;20229;-90
2023/03/28 09:17:15;;;;;;;5.13;1.70;;;9.30;99.90;;;;;;5014996;28;20351;-86
2023/03/28 09:20:12;;;;;;;7.97;2.17;;;9.40;99.90;;;;;;5009487;28;20283;-88
2023/03/28 09:22:58;;;;;;;5.80;1.80;;;9.20;99.90;;;;;;5007693;28;20257;-88
2023/03/28 09:25:56;;;;;;;5.97;1.80;;;9.50;99.90;;;;;;5026998;28;20220;-88
2023/03/28 09:28:29;;;;;;;10.47;1.90;;;9.10;99.90;;;;;;5006539;28;20214;-88
2023/03/28 09:30:57;;;;;;;5.60;1.93;;;8.70;99.90;;;;;;5024289;28;20710;-86
2023/03/28 09:33:32;;;;;;;4.33;1.90;;;9.00;99.90;;;;;;5011414;28;20280;-87
2023/03/28 09:36:01;;;;;;;4.27;1.90;;;9.10;99.90;;;;;;5032464;28;20198;-88
2023/03/28 09:38:55;;;;;;;3.97;1.87;;;9.40;99.90;;;;;;5008945;28;20249;-87
2023/03/28 09:41:51;;;;;;;7.80;3.37;;;9.40;99.90;;;;;;5009848;28;20628;-89
2023/03/28 09:44:42;;;;;;;8.23;3.03;;;9.30;99.90;;;;;;5032469;28;20214;-89
2023/03/28 09:47:26;;;;;;;10.50;2.50;;;9.40;99.90;;;;;;5017825;28;20258;-89
2023/03/28 09:49:53;;;;;;;3.83;2.30;;;9.30;99.90;;;;;;5029852;28;20216;-87
2023/03/28 09:52:56;;;;;;;6.67;2.63;;;9.40;99.90;;;;;;5018793;28;20320;-90
2023/03/28 09:55:37;;;;;;;6.80;2.50;;;9.60;99.90;;;;;;5015409;28;20752;-88
2023/03/28 09:58:19;;;;;;;3.93;2.70;;;9.80;99.90;;;;;;5029049;28;20260;-89
2023/03/28 10:00:54;;;;;;;7.93;2.40;;;10.30;99.90;;;;;;5033488;28;20222;-89
2023/03/28 10:03:33;;;;;;;6.47;2.53;;;9.60;99.90;;;;;;5032453;28;20300;-88
2023/03/28 10:06:24;;;;;;;5.37;3.37;;;10.10;99.90;;;;;;5035487;28;20262;-90
2023/03/28 10:09:30;;;;;;;8.33;2.67;;;9.90;99.90;;;;;;5034516;28;20264;-90
2023/03/28 10:12:03;;;;;;;7.60;2.80;;;10.00;99.90;;;;;;4983224;28;20201;-88
2023/03/28 10:14:45;;;;;;;6.83;2.97;;;10.20;99.90;;;;;;5029825;28;20985;-88
2023/03/28 10:17:31;;;;;;;7.57;3.97;;;10.20;99.90;;;;;;5029124;28;20201;-89
2023/03/28 10:20:23;;;;;;;6.70;2.70;;;10.20;99.90;;;;;;5033079;28;20245;-88
2023/03/28 10:22:54;;;;;;;5.43;2.33;;;10.10;99.90;;;;;;5063423;28;20204;-89
2023/03/28 10:25:36;;;;;;;9.67;2.73;;;9.90;99.90;;;;;;5048897;28;20217;-89
2023/03/28 10:28:06;;;;;;;5.00;2.70;;;10.00;99.90;;;;;;5049694;28;20288;-88
2023/03/28 10:30:39;;;;;;;5.97;3.13;;;10.10;99.90;;;;;;5036797;28;20190;-90
2023/03/28 10:33:17;;;;;;;6.70;2.80;;;10.00;99.90;;;;;;5045984;28;20787;-89
2023/03/28 10:36:08;;;;;;;10.73;3.00;;;10.10;99.90;;;;;;5036964;28;20209;-89
2023/03/28 10:38:42;;;;;;;7.47;2.90;;;10.20;99.90;;;;;;5038154;28;20215;-88
2023/03/28 10:41:30;;;;;;;10.10;3.33;;;10.10;99.90;;;;;;5039064;28;20578;-89
2023/03/28 10:44:17;;;;;;;4.37;2.83;;;10.20;99.90;;;;;;5038394;28;20221;-89
2023/03/28 10:46:49;;;;;;;6.53;2.77;;;10.30;99.90;;;;;;5038552;28;20207;-89
2023/03/28 10:49:19;;;;;;;6.47;3.10;;;10.80;99.90;;;;;;5042073;28;20628;-89
2023/03/28 10:52:03;;;;;;;4.53;2.80;;;10.30;99.90;;;;;;5046034;28;20662;-90
2023/03/28 10:54:58;;;;;;;7.97;2.77;;;11.00;99.90;;;;;;5047872;28;20303;-88
2023/03/28 10:57:41;;;;;;;6.20;2.70;;;10.60;99.90;;;;;;5020443;28;20325;-89
2023/03/28 11:00:37;;;;;;;8.30;2.97;;;10.90;99.90;;;;;;5024369;28;20226;-88
2023/03/28 11:03:43;;;;;;;4.07;2.60;;;10.70;99.90;;;;;;5068741;28;20247;-88
2023/03/28 11:06:25;;;;;;;10.57;2.77;;;10.70;99.90;;;;;;5031401;28;20197;-92
2023/03/28 11:09:23;;;;;;;5.30;2.47;;;10.90;99.90;;;;;;5046882;28;20283;-88
2023/03/28 11:12:35;;;;;;;7.50;3.43;;;10.90;99.90;;;;;;5018751;28;20276;-89
2023/03/28 11:15:41;;;;;;;7.70;3.10;;;11.50;99.90;;;;;;5026051;28;20638;-88
2023/03/28 11:18:19;;;;;;;8.33;2.50;;;11.30;99.90;;;;;;5036784;28;20247;-89
2023/03/28 11:21:17;;;;;;;5.00;2.80;;;11.10;99.90;;;;;;5034199;28;20231;-90
2023/03/28 11:24:17;;;;;;;4.97;2.70;;;10.90;99.90;;;;;;5032392;28;20204;-89
2023/03/28 11:27:14;;;;;;;6.17;3.20;;;10.90;99.90;;;;;;5029008;28;20210;-88
2023/03/28 11:30:16;;;;;;;7.07;3.37;;;10.80;99.90;;;;;;5028531;28;20552;-88
2023/03/28 11:33:20;;;;;;;5.93;2.90;;;10.80;99.90;;;;;;5033620;28;20256;-88
2023/03/28 11:36:02;;;;;;;6.93;3.27;;;10.90;99.90;;;;;;5026143;28;20227;-87
2023/03/28 11:38:38;;;;;;;5.37;2.87;;;10.70;99.90;;;;;;5033334;28;20251;-85
2023/03/28 11:41:18;;;;;;;5.13;2.57;;;10.60;99.90;;;;;;5041567;28;20193;-87
2023/03/28 11:44:10;;;;;;;8.53;3.00;;;10.60;99.90;;;;;;5043559;28;20209;-86
2023/03/28 11:46:55;;;;;;;7.27;3.20;;;10.10;99.90;;;;;;5023023;28;20201;-90
2023/03/28 11:49:59;;;;;;;12.00;3.57;;;11.00;99.90;;;;;;5043313;28;20259;-91
2023/03/28 11:57:00;;;;;;;;;;;;;;;;;;;;;
2023/03/28 12:00:36;;;;;;;8.30;3.40;;;10.60;99.90;;;;;;5054892;28;20209;-95
2023/03/28 12:13:00;;;;;;;;;;;;;;;;;;;;;
2023/03/28 12:23:36;;;;;;;6.67;2.70;;;10.50;99.90;;;;;;4967387;28;20653;-86
2023/03/28 12:26:43;;;;;;;7.50;3.00;;;10.50;99.90;;;;;;4978858;28;20214;-91
2023/03/28 12:29:42;;;;;;;7.27;3.07;;;10.80;99.90;;;;;;4956664;28;20230;-92
2023/03/28 12:32:45;;;;;;;7.13;3.10;;;11.00;99.90;;;;;;4972622;28;20208;-91
2023/03/28 12:35:37;;;;;;;7.70;2.90;;;11.20;99.90;;;;;;4977528;28;20281;-90
2023/03/28 12:38:41;;;;;;;4.63;2.50;;;11.40;99.90;;;;;;4973511;28;20338;-89
2023/03/28 12:41:23;;;;;;;5.40;2.70;;;11.40;99.90;;;;;;4966049;28;20202;-91
2023/03/28 12:44:16;;;;;;;5.30;2.53;;;11.40;99.90;;;;;;4977287;28;20215;-88
2023/03/28 12:47:17;;;;;;;5.67;2.70;;;11.30;99.90;;;;;;5027557;28;20313;-90
2023/03/28 12:50:03;;;;;;;6.60;2.70;;;11.30;99.90;;;;;;4959197;28;20200;-89
2023/03/28 12:53:09;;;;;;;5.00;2.60;;;11.20;99.90;;;;;;5037400;28;20221;-91
2023/03/28 12:55:46;;;;;;;4.83;2.77;;;11.20;99.90;;;;;;4954405;28;20998;-90
2023/03/28 12:58:45;;;;;;;5.70;2.43;;;11.00;99.90;;;;;;4970019;28;20314;-91
2023/03/28 13:05:05;;;;;;;4.97;2.57;;;10.90;99.90;;;;;;4983409;28;20225;-87
2023/03/28 13:07:59;;;;;;;7.87;2.50;;;10.70;99.90;;;;;;5020947;28;20202;-85
2023/03/28 13:10:57;;;;;;;5.93;2.63;;;10.60;99.90;;;;;;5024790;28;20309;-86
2023/03/28 13:13:46;;;;;;;5.20;2.70;;;10.50;99.90;;;;;;5041437;28;20240;-88
2023/03/28 13:16:40;;;;;;;4.77;2.53;;;10.50;99.90;;;;;;5027523;28;20578;-89
2023/03/28 13:19:10;;;;;;;7.90;2.37;;;10.50;99.90;;;;;;5021965;28;20228;-87
2023/03/28 13:21:42;;;;;;;7.87;2.80;;;10.50;99.90;;;;;;5030039;28;20208;-86
2023/03/28 13:24:30;;;;;;;9.20;2.83;;;10.60;99.90;;;;;;5037740;28;20209;-89
2023/03/28 13:27:31;;;;;;;7.20;2.60;;;10.70;99.90;;;;;;5043999;28;20205;-88
2023/03/28 13:30:15;;;;;;;5.17;2.90;;;10.70;99.90;;;;;;5021853;28;20229;-88
2023/03/28 13:32:58;;;;;;;4.63;3.20;;;10.60;99.90;;;;;;5026863;28;20313;-88
2023/03/28 13:35:47;;;;;;;6.07;3.30;;;10.60;99.90;;;;;;5022187;28;20245;-88
2023/03/28 13:38:22;;;;;;;4.47;2.73;;;10.50;99.90;;;;;;5047229;28;20270;-91
2023/03/28 13:41:11;;;;;;;8.43;3.30;;;10.60;99.90;;;;;;5033419;28;20345;-88
2023/03/28 13:43:40;;;;;;;6.67;3.43;;;10.40;99.90;;;;;;5017703;28;20217;-87
2023/03/28 13:46:24;;;;;;;5.53;3.80;;;10.30;99.90;;;;;;5046984;28;20241;-89
2023/03/28 13:49:30;;;;;;;9.10;3.77;;;10.20;99.90;;;;;;5046061;28;20225;-88
2023/03/28 13:52:20;;;;;;;7.30;3.23;;;9.90;99.90;;;;;;5043237;28;20198;-89
2023/03/28 13:54:53;;;;;;;6.47;3.77;;;9.90;99.90;;;;;;5030179;28;20225;-87
2023/03/28 13:57:28;;;;;;;8.83;3.83;;;9.90;99.90;;;;;;5035084;28;20337;-90
2023/03/28 14:00:03;;;;;;;5.70;3.60;;;10.10;99.90;;;;;;5023265;28;20197;-88
2023/03/28 14:02:46;;;;;;;6.87;3.20;;;10.10;99.90;;;;;;5009513;28;20660;-87
2023/03/28 14:05:25;;;;;;;7.17;3.73;;;10.40;99.90;;;;;;5007202;28;20558;-86
2023/03/28 14:08:13;;;;;;;7.00;3.60;;;10.40;99.90;;;;;;5025333;28;20209;-88